sensor_id;sensor_type;location;lat;lon;timestamp;temperature;humidity
4813;DHT22;2420;51.202;8.698;2023-08-07T00:01:12;12.90;1.00
4813;DHT22;2420;51.202;8.698;2023-08-07T00:03:38;12.90;1.00
4813;DHT22;2420;51.202;8.698;2023-08-07T00:06:03;12.90;1.00
4813;DHT22;2420;51.202;8.698;2023-08-07T00:08:29;12.90;1.00
4813;DHT22;2420;51.202;8.698;2023-08-07T00:11:07;12.90;1.00
4813;DHT22;2420;51.202;8.698;2023-08-07T00:13:33;12.90;1.00
4813;DHT22;2420;51.202;8.698;2023-08-07T00:15:59;12.90;1.00
4813;DHT22;2420;51.202;8.698;2023-08-07T00:18:24;12.90;1.00
4813;DHT22;2420;51.202;8.698;2023-08-07T00:20:50;12.90;1.00
4813;DHT22;2420;51.202;8.698;2023-08-07T00:23:15;12.80;1.00
4813;DHT22;2420;51.202;8.698;2023-08-07T00:25:41;12.80;1.00
4813;DHT22;2420;51.202;8.698;2023-08-07T00:28:06;12.80;1.00
4813;DHT22;2420;51.202;8.698;2023-08-07T00:30:32;12.80;1.00
4813;DHT22;2420;51.202;8.698;2023-08-07T00:32:57;12.80;1.00
4813;DHT22;2420;51.202;8.698;2023-08-07T00:35:23;12.80;1.00
4813;DHT22;2420;51.202;8.698;2023-08-07T00:37:48;12.80;1.00
4813;DHT22;2420;51.202;8.698;2023-08-07T00:40:14;12.80;1.00
4813;DHT22;2420;51.202;8.698;2023-08-07T00:42:40;12.80;1.00
4813;DHT22;2420;51.202;8.698;2023-08-07T00:45:05;12.90;1.00
4813;DHT22;2420;51.202;8.698;2023-08-07T00:47:31;12.80;1.00
4813;DHT22;2420;51.202;8.698;2023-08-07T00:49:58;12.90;1.00
4813;DHT22;2420;51.202;8.698;2023-08-07T00:52:24;12.90;1.00
4813;DHT22;2420;51.202;8.698;2023-08-07T00:54:49;12.90;1.00
4813;DHT22;2420;51.202;8.698;2023-08-07T00:57:15;12.90;1.00
4813;DHT22;2420;51.202;8.698;2023-08-07T00:59:42;12.90;1.00
4813;DHT22;2420;51.202;8.698;2023-08-07T01:02:09;12.80;1.00
4813;DHT22;2420;51.202;8.698;2023-08-07T01:04:35;12.90;1.00
4813;DHT22;2420;51.202;8.698;2023-08-07T01:07:00;12.90;1.00
4813;DHT22;2420;51.202;8.698;2023-08-07T01:09:26;12.90;1.00
4813;DHT22;2420;51.202;8.698;2023-08-07T01:12:14;12.80;1.00
4813;DHT22;2420;51.202;8.698;2023-08-07T01:14:58;12.80;1.00
4813;DHT22;2420;51.202;8.698;2023-08-07T01:17:28;12.80;1.00
4813;DHT22;2420;51.202;8.698;2023-08-07T01:19:55;12.80;1.00
4813;DHT22;2420;51.202;8.698;2023-08-07T01:22:22;12.80;1.00
4813;DHT22;2420;51.202;8.698;2023-08-07T01:24:49;12.80;1.00
4813;DHT22;2420;51.202;8.698;2023-08-07T01:32:34;12.70;1.00
4813;DHT22;2420;51.202;8.698;2023-08-07T01:35:02;12.70;1.00
4813;DHT22;2420;51.202;8.698;2023-08-07T01:37:31;12.70;1.00
4813;DHT22;2420;51.202;8.698;2023-08-07T01:39:58;12.70;1.00
4813;DHT22;2420;51.202;8.698;2023-08-07T01:42:26;12.80;1.00
4813;DHT22;2420;51.202;8.698;2023-08-07T01:44:52;12.80;1.00
4813;DHT22;2420;51.202;8.698;2023-08-07T01:47:18;12.80;1.00
4813;DHT22;2420;51.202;8.698;2023-08-07T01:49:43;12.80;1.00
4813;DHT22;2420;51.202;8.698;2023-08-07T01:52:09;12.80;1.00
4813;DHT22;2420;51.202;8.698;2023-08-07T01:54:35;12.80;1.00
4813;DHT22;2420;51.202;8.698;2023-08-07T01:57:00;12.80;1.00
4813;DHT22;2420;51.202;8.698;2023-08-07T01:59:26;12.80;1.00
4813;DHT22;2420;51.202;8.698;2023-08-07T02:01:51;12.80;1.00
4813;DHT22;2420;51.202;8.698;2023-08-07T02:04:17;12.70;1.00
4813;DHT22;2420;51.202;8.698;2023-08-07T02:06:42;12.70;1.00
4813;DHT22;2420;51.202;8.698;2023-08-07T02:09:08;12.80;1.00
4813;DHT22;2420;51.202;8.698;2023-08-07T02:11:33;12.80;1.00
4813;DHT22;2420;51.202;8.698;2023-08-07T02:13:59;12.80;1.00
4813;DHT22;2420;51.202;8.698;2023-08-07T02:16:24;12.80;1.00
4813;DHT22;2420;51.202;8.698;2023-08-07T02:18:50;12.80;1.00
4813;DHT22;2420;51.202;8.698;2023-08-07T02:21:15;12.70;1.00
4813;DHT22;2420;51.202;8.698;2023-08-07T02:23:41;12.80;1.00
4813;DHT22;2420;51.202;8.698;2023-08-07T02:26:06;12.80;1.00
4813;DHT22;2420;51.202;8.698;2023-08-07T02:28:32;12.80;1.00
4813;DHT22;2420;51.202;8.698;2023-08-07T02:30:57;12.80;1.00
4813;DHT22;2420;51.202;8.698;2023-08-07T02:33:23;12.80;1.00
4813;DHT22;2420;51.202;8.698;2023-08-07T02:35:48;12.80;1.00
4813;DHT22;2420;51.202;8.698;2023-08-07T02:38:16;12.80;1.00
4813;DHT22;2420;51.202;8.698;2023-08-07T02:40:42;12.80;1.00
4813;DHT22;2420;51.202;8.698;2023-08-07T02:43:08;12.80;1.00
4813;DHT22;2420;51.202;8.698;2023-08-07T02:45:34;12.70;1.00
4813;DHT22;2420;51.202;8.698;2023-08-07T02:48:00;12.70;1.00
4813;DHT22;2420;51.202;8.698;2023-08-07T02:50:25;12.70;1.00
4813;DHT22;2420;51.202;8.698;2023-08-07T02:52:53;12.70;1.00
4813;DHT22;2420;51.202;8.698;2023-08-07T02:55:18;12.70;1.00
4813;DHT22;2420;51.202;8.698;2023-08-07T02:57:44;12.70;1.00
4813;DHT22;2420;51.202;8.698;2023-08-07T03:00:10;12.80;1.00
4813;DHT22;2420;51.202;8.698;2023-08-07T03:02:36;12.80;1.00
4813;DHT22;2420;51.202;8.698;2023-08-07T03:05:02;12.70;1.00
4813;DHT22;2420;51.202;8.698;2023-08-07T03:07:28;12.80;1.00
4813;DHT22;2420;51.202;8.698;2023-08-07T03:09:53;12.80;1.00
4813;DHT22;2420;51.202;8.698;2023-08-07T03:12:19;12.70;1.00
4813;DHT22;2420;51.202;8.698;2023-08-07T03:14:44;12.80;1.00
4813;DHT22;2420;51.202;8.698;2023-08-07T03:17:10;12.80;1.00
4813;DHT22;2420;51.202;8.698;2023-08-07T03:19:35;12.80;1.00
4813;DHT22;2420;51.202;8.698;2023-08-07T03:22:01;12.70;1.00
4813;DHT22;2420;51.202;8.698;2023-08-07T03:24:27;12.70;1.00
4813;DHT22;2420;51.202;8.698;2023-08-07T03:26:52;12.70;1.00
4813;DHT22;2420;51.202;8.698;2023-08-07T03:29:18;12.70;1.00
4813;DHT22;2420;51.202;8.698;2023-08-07T03:31:43;12.70;1.00
4813;DHT22;2420;51.202;8.698;2023-08-07T03:34:09;12.70;1.00
4813;DHT22;2420;51.202;8.698;2023-08-07T03:36:34;12.70;1.00
4813;DHT22;2420;51.202;8.698;2023-08-07T03:39:00;12.80;1.00
4813;DHT22;2420;51.202;8.698;2023-08-07T03:41:26;12.80;1.00
4813;DHT22;2420;51.202;8.698;2023-08-07T03:43:52;12.70;1.00
4813;DHT22;2420;51.202;8.698;2023-08-07T03:46:17;12.70;1.00
4813;DHT22;2420;51.202;8.698;2023-08-07T03:48:43;12.70;1.00
4813;DHT22;2420;51.202;8.698;2023-08-07T03:51:08;12.60;1.00
4813;DHT22;2420;51.202;8.698;2023-08-07T03:53:34;12.60;1.00
4813;DHT22;2420;51.202;8.698;2023-08-07T03:56:00;12.60;1.00
4813;DHT22;2420;51.202;8.698;2023-08-07T03:58:25;12.60;1.00
4813;DHT22;2420;51.202;8.698;2023-08-07T04:00:51;12.60;1.00
4813;DHT22;2420;51.202;8.698;2023-08-07T04:03:18;12.60;1.00
4813;DHT22;2420;51.202;8.698;2023-08-07T04:05:44;12.60;1.00
4813;DHT22;2420;51.202;8.698;2023-08-07T04:08:09;12.60;1.00
4813;DHT22;2420;51.202;8.698;2023-08-07T04:10:35;12.60;1.00
4813;DHT22;2420;51.202;8.698;2023-08-07T04:13:00;12.60;1.00
4813;DHT22;2420;51.202;8.698;2023-08-07T04:15:26;12.60;1.00
4813;DHT22;2420;51.202;8.698;2023-08-07T04:17:51;12.50;1.00
4813;DHT22;2420;51.202;8.698;2023-08-07T04:20:17;12.50;1.00
4813;DHT22;2420;51.202;8.698;2023-08-07T04:22:43;12.50;1.00
4813;DHT22;2420;51.202;8.698;2023-08-07T04:25:10;12.60;1.00
4813;DHT22;2420;51.202;8.698;2023-08-07T04:27:35;12.50;1.00
4813;DHT22;2420;51.202;8.698;2023-08-07T04:30:01;12.50;1.00
4813;DHT22;2420;51.202;8.698;2023-08-07T04:32:26;12.60;1.00
4813;DHT22;2420;51.202;8.698;2023-08-07T04:34:52;12.60;1.00
4813;DHT22;2420;51.202;8.698;2023-08-07T04:37:17;12.60;1.00
4813;DHT22;2420;51.202;8.698;2023-08-07T04:39:43;12.60;1.00
4813;DHT22;2420;51.202;8.698;2023-08-07T04:42:08;12.60;1.00
4813;DHT22;2420;51.202;8.698;2023-08-07T04:44:34;12.60;1.00
4813;DHT22;2420;51.202;8.698;2023-08-07T04:47:00;12.60;1.00
4813;DHT22;2420;51.202;8.698;2023-08-07T04:49:25;12.60;1.00
4813;DHT22;2420;51.202;8.698;2023-08-07T04:51:51;12.60;1.00
4813;DHT22;2420;51.202;8.698;2023-08-07T04:54:16;12.60;1.00
4813;DHT22;2420;51.202;8.698;2023-08-07T04:56:42;12.60;1.00
4813;DHT22;2420;51.202;8.698;2023-08-07T04:59:10;12.60;1.00
4813;DHT22;2420;51.202;8.698;2023-08-07T05:01:35;12.60;1.00
4813;DHT22;2420;51.202;8.698;2023-08-07T05:04:01;12.60;1.00
4813;DHT22;2420;51.202;8.698;2023-08-07T05:06:27;12.60;1.00
4813;DHT22;2420;51.202;8.698;2023-08-07T05:08:52;12.70;1.00
4813;DHT22;2420;51.202;8.698;2023-08-07T05:11:18;12.60;1.00
4813;DHT22;2420;51.202;8.698;2023-08-07T05:13:45;12.70;1.00
4813;DHT22;2420;51.202;8.698;2023-08-07T05:16:11;12.70;1.00
4813;DHT22;2420;51.202;8.698;2023-08-07T05:18:36;12.70;1.00
4813;DHT22;2420;51.202;8.698;2023-08-07T05:21:02;12.70;1.00
4813;DHT22;2420;51.202;8.698;2023-08-07T05:23:28;12.70;1.00
4813;DHT22;2420;51.202;8.698;2023-08-07T05:25:53;12.80;1.00
4813;DHT22;2420;51.202;8.698;2023-08-07T05:28:19;12.80;1.00
4813;DHT22;2420;51.202;8.698;2023-08-07T05:30:44;12.80;1.00
4813;DHT22;2420;51.202;8.698;2023-08-07T05:33:10;12.80;1.00
4813;DHT22;2420;51.202;8.698;2023-08-07T05:35:37;12.80;1.00
4813;DHT22;2420;51.202;8.698;2023-08-07T05:38:03;12.80;1.00
4813;DHT22;2420;51.202;8.698;2023-08-07T05:40:29;12.80;1.00
4813;DHT22;2420;51.202;8.698;2023-08-07T05:42:55;12.80;1.00
4813;DHT22;2420;51.202;8.698;2023-08-07T05:45:20;12.90;1.00
4813;DHT22;2420;51.202;8.698;2023-08-07T05:47:46;12.80;1.00
4813;DHT22;2420;51.202;8.698;2023-08-07T05:50:11;12.80;1.00
4813;DHT22;2420;51.202;8.698;2023-08-07T05:52:37;12.90;1.00
4813;DHT22;2420;51.202;8.698;2023-08-07T05:55:03;12.90;1.00
4813;DHT22;2420;51.202;8.698;2023-08-07T05:57:29;12.80;1.00
4813;DHT22;2420;51.202;8.698;2023-08-07T05:59:55;12.90;1.00
4813;DHT22;2420;51.202;8.698;2023-08-07T06:02:20;12.90;1.00
4813;DHT22;2420;51.202;8.698;2023-08-07T06:04:46;12.90;1.00
4813;DHT22;2420;51.202;8.698;2023-08-07T06:07:12;13.00;1.00
4813;DHT22;2420;51.202;8.698;2023-08-07T06:09:37;13.00;1.00
4813;DHT22;2420;51.202;8.698;2023-08-07T06:12:03;13.00;1.00
4813;DHT22;2420;51.202;8.698;2023-08-07T06:14:29;12.90;1.00
4813;DHT22;2420;51.202;8.698;2023-08-07T06:16:55;12.90;1.00
4813;DHT22;2420;51.202;8.698;2023-08-07T06:19:23;13.00;1.00
4813;DHT22;2420;51.202;8.698;2023-08-07T06:21:49;13.10;1.00
4813;DHT22;2420;51.202;8.698;2023-08-07T06:24:14;13.10;1.00
4813;DHT22;2420;51.202;8.698;2023-08-07T06:26:40;13.10;1.00
4813;DHT22;2420;51.202;8.698;2023-08-07T06:29:05;13.10;1.00
4813;DHT22;2420;51.202;8.698;2023-08-07T06:31:31;13.20;1.00
4813;DHT22;2420;51.202;8.698;2023-08-07T06:33:56;13.20;1.00
4813;DHT22;2420;51.202;8.698;2023-08-07T06:36:25;13.20;1.00
4813;DHT22;2420;51.202;8.698;2023-08-07T06:38:50;13.20;1.00
4813;DHT22;2420;51.202;8.698;2023-08-07T06:41:16;13.30;1.00
4813;DHT22;2420;51.202;8.698;2023-08-07T06:43:41;13.30;1.00
4813;DHT22;2420;51.202;8.698;2023-08-07T06:46:07;13.30;1.00
4813;DHT22;2420;51.202;8.698;2023-08-07T06:48:32;13.30;1.00
4813;DHT22;2420;51.202;8.698;2023-08-07T06:50:58;13.40;1.00
4813;DHT22;2420;51.202;8.698;2023-08-07T06:53:24;13.40;1.00
4813;DHT22;2420;51.202;8.698;2023-08-07T06:55:49;13.30;1.00
4813;DHT22;2420;51.202;8.698;2023-08-07T06:58:15;13.40;1.00
4813;DHT22;2420;51.202;8.698;2023-08-07T07:00:40;13.60;1.00
4813;DHT22;2420;51.202;8.698;2023-08-07T07:03:06;13.70;1.00
4813;DHT22;2420;51.202;8.698;2023-08-07T07:05:33;13.80;1.00
4813;DHT22;2420;51.202;8.698;2023-08-07T07:07:58;13.70;1.00
4813;DHT22;2420;51.202;8.698;2023-08-07T07:10:24;13.80;1.00
4813;DHT22;2420;51.202;8.698;2023-08-07T07:12:49;13.70;1.00
4813;DHT22;2420;51.202;8.698;2023-08-07T07:15:15;13.70;1.00
4813;DHT22;2420;51.202;8.698;2023-08-07T07:17:40;13.60;1.00
4813;DHT22;2420;51.202;8.698;2023-08-07T07:20:06;13.70;1.00
4813;DHT22;2420;51.202;8.698;2023-08-07T07:22:34;13.60;1.00
4813;DHT22;2420;51.202;8.698;2023-08-07T07:25:00;13.60;1.00
4813;DHT22;2420;51.202;8.698;2023-08-07T07:27:26;13.70;1.00
4813;DHT22;2420;51.202;8.698;2023-08-07T07:29:51;13.60;1.00
4813;DHT22;2420;51.202;8.698;2023-08-07T07:32:17;13.50;1.00
4813;DHT22;2420;51.202;8.698;2023-08-07T07:34:43;13.50;1.00
4813;DHT22;2420;51.202;8.698;2023-08-07T07:37:09;13.60;1.00
4813;DHT22;2420;51.202;8.698;2023-08-07T07:39:35;13.60;1.00
4813;DHT22;2420;51.202;8.698;2023-08-07T07:42:00;13.70;1.00
4813;DHT22;2420;51.202;8.698;2023-08-07T07:44:26;13.70;1.00
4813;DHT22;2420;51.202;8.698;2023-08-07T07:46:52;13.80;1.00
4813;DHT22;2420;51.202;8.698;2023-08-07T07:49:17;13.90;1.00
4813;DHT22;2420;51.202;8.698;2023-08-07T07:51:43;13.90;1.00
4813;DHT22;2420;51.202;8.698;2023-08-07T07:54:10;14.00;1.00
4813;DHT22;2420;51.202;8.698;2023-08-07T07:56:35;14.10;1.00
4813;DHT22;2420;51.202;8.698;2023-08-07T07:59:01;14.10;1.00
4813;DHT22;2420;51.202;8.698;2023-08-07T08:01:27;14.10;1.00
4813;DHT22;2420;51.202;8.698;2023-08-07T08:03:53;14.20;1.00
4813;DHT22;2420;51.202;8.698;2023-08-07T08:06:19;14.30;1.00
4813;DHT22;2420;51.202;8.698;2023-08-07T08:08:44;14.30;1.00
4813;DHT22;2420;51.202;8.698;2023-08-07T08:11:10;14.30;1.00
4813;DHT22;2420;51.202;8.698;2023-08-07T08:13:36;14.30;1.00
4813;DHT22;2420;51.202;8.698;2023-08-07T08:16:04;14.20;1.00
4813;DHT22;2420;51.202;8.698;2023-08-07T08:18:29;14.20;1.00
4813;DHT22;2420;51.202;8.698;2023-08-07T08:20:55;14.40;1.00
4813;DHT22;2420;51.202;8.698;2023-08-07T08:23:21;14.50;1.00
4813;DHT22;2420;51.202;8.698;2023-08-07T08:25:46;14.60;1.00
4813;DHT22;2420;51.202;8.698;2023-08-07T08:28:13;14.80;1.00
4813;DHT22;2420;51.202;8.698;2023-08-07T08:30:39;14.90;1.00
4813;DHT22;2420;51.202;8.698;2023-08-07T08:33:05;14.90;1.00
4813;DHT22;2420;51.202;8.698;2023-08-07T08:35:31;14.90;1.00
4813;DHT22;2420;51.202;8.698;2023-08-07T08:37:57;15.00;1.00
4813;DHT22;2420;51.202;8.698;2023-08-07T08:40:23;15.00;1.00
4813;DHT22;2420;51.202;8.698;2023-08-07T08:42:49;15.20;1.00
4813;DHT22;2420;51.202;8.698;2023-08-07T08:45:15;15.40;1.00
4813;DHT22;2420;51.202;8.698;2023-08-07T08:47:43;15.30;1.00
4813;DHT22;2420;51.202;8.698;2023-08-07T08:50:13;15.30;1.00
4813;DHT22;2420;51.202;8.698;2023-08-07T08:52:44;15.40;1.00
4813;DHT22;2420;51.202;8.698;2023-08-07T08:55:11;15.50;1.00
4813;DHT22;2420;51.202;8.698;2023-08-07T08:57:38;15.40;1.00
4813;DHT22;2420;51.202;8.698;2023-08-07T09:00:05;15.40;1.00
4813;DHT22;2420;51.202;8.698;2023-08-07T09:02:41;15.50;1.00
4813;DHT22;2420;51.202;8.698;2023-08-07T09:05:07;15.50;1.00
4813;DHT22;2420;51.202;8.698;2023-08-07T09:07:32;15.80;1.00
4813;DHT22;2420;51.202;8.698;2023-08-07T09:09:59;15.90;1.00
4813;DHT22;2420;51.202;8.698;2023-08-07T09:12:29;15.90;1.00
4813;DHT22;2420;51.202;8.698;2023-08-07T09:14:57;15.70;1.00
4813;DHT22;2420;51.202;8.698;2023-08-07T09:17:31;15.70;1.00
4813;DHT22;2420;51.202;8.698;2023-08-07T09:20:00;15.40;1.00
4813;DHT22;2420;51.202;8.698;2023-08-07T09:22:26;15.30;1.00
4813;DHT22;2420;51.202;8.698;2023-08-07T09:24:51;15.10;1.00
4813;DHT22;2420;51.202;8.698;2023-08-07T09:27:17;15.10;1.00
4813;DHT22;2420;51.202;8.698;2023-08-07T09:29:44;15.20;1.00
4813;DHT22;2420;51.202;8.698;2023-08-07T09:32:12;15.20;1.00
4813;DHT22;2420;51.202;8.698;2023-08-07T09:34:41;15.20;1.00
4813;DHT22;2420;51.202;8.698;2023-08-07T09:37:08;15.10;1.00
4813;DHT22;2420;51.202;8.698;2023-08-07T09:39:34;15.20;1.00
4813;DHT22;2420;51.202;8.698;2023-08-07T09:42:01;15.20;1.00
4813;DHT22;2420;51.202;8.698;2023-08-07T09:44:35;15.40;1.00
4813;DHT22;2420;51.202;8.698;2023-08-07T09:47:14;15.50;1.00
4813;DHT22;2420;51.202;8.698;2023-08-07T09:49:40;15.30;1.00
4813;DHT22;2420;51.202;8.698;2023-08-07T09:52:07;15.20;1.00
4813;DHT22;2420;51.202;8.698;2023-08-07T09:54:33;15.20;1.00
4813;DHT22;2420;51.202;8.698;2023-08-07T09:57:03;15.10;1.00
4813;DHT22;2420;51.202;8.698;2023-08-07T09:59:29;15.10;1.00
4813;DHT22;2420;51.202;8.698;2023-08-07T10:01:55;15.20;1.00
4813;DHT22;2420;51.202;8.698;2023-08-07T10:04:21;15.10;1.00
4813;DHT22;2420;51.202;8.698;2023-08-07T10:06:47;15.00;1.00
4813;DHT22;2420;51.202;8.698;2023-08-07T10:09:13;15.00;1.00
4813;DHT22;2420;51.202;8.698;2023-08-07T10:11:40;15.00;1.00
4813;DHT22;2420;51.202;8.698;2023-08-07T10:14:06;15.00;1.00
4813;DHT22;2420;51.202;8.698;2023-08-07T10:16:32;15.00;1.00
4813;DHT22;2420;51.202;8.698;2023-08-07T10:18:58;15.00;1.00
4813;DHT22;2420;51.202;8.698;2023-08-07T10:21:24;14.90;1.00
4813;DHT22;2420;51.202;8.698;2023-08-07T10:23:53;14.90;1.00
4813;DHT22;2420;51.202;8.698;2023-08-07T10:26:19;14.90;1.00
4813;DHT22;2420;51.202;8.698;2023-08-07T10:28:46;14.80;1.00
4813;DHT22;2420;51.202;8.698;2023-08-07T10:31:13;14.60;1.00
4813;DHT22;2420;51.202;8.698;2023-08-07T10:33:41;14.60;1.00
4813;DHT22;2420;51.202;8.698;2023-08-07T10:36:10;14.60;1.00
4813;DHT22;2420;51.202;8.698;2023-08-07T10:38:36;14.70;1.00
4813;DHT22;2420;51.202;8.698;2023-08-07T10:41:13;14.70;1.00
4813;DHT22;2420;51.202;8.698;2023-08-07T10:43:43;14.90;1.00
4813;DHT22;2420;51.202;8.698;2023-08-07T10:46:29;15.00;1.00
4813;DHT22;2420;51.202;8.698;2023-08-07T10:48:59;14.90;1.00
4813;DHT22;2420;51.202;8.698;2023-08-07T10:51:35;15.00;1.00
4813;DHT22;2420;51.202;8.698;2023-08-07T10:54:01;15.10;1.00
4813;DHT22;2420;51.202;8.698;2023-08-07T10:56:36;15.20;1.00
4813;DHT22;2420;51.202;8.698;2023-08-07T10:59:09;15.20;1.00
4813;DHT22;2420;51.202;8.698;2023-08-07T11:04:09;15.20;1.00
4813;DHT22;2420;51.202;8.698;2023-08-07T11:06:36;15.00;1.00
4813;DHT22;2420;51.202;8.698;2023-08-07T11:09:03;15.00;1.00
4813;DHT22;2420;51.202;8.698;2023-08-07T11:11:36;14.80;1.00
4813;DHT22;2420;51.202;8.698;2023-08-07T11:14:14;14.90;1.00
4813;DHT22;2420;51.202;8.698;2023-08-07T11:16:41;14.90;1.00
4813;DHT22;2420;51.202;8.698;2023-08-07T11:19:07;14.90;1.00
4813;DHT22;2420;51.202;8.698;2023-08-07T11:21:33;15.10;1.00
4813;DHT22;2420;51.202;8.698;2023-08-07T11:23:59;15.30;1.00
4813;DHT22;2420;51.202;8.698;2023-08-07T11:26:25;15.20;1.00
4813;DHT22;2420;51.202;8.698;2023-08-07T11:28:53;15.20;1.00
4813;DHT22;2420;51.202;8.698;2023-08-07T11:31:19;15.20;1.00
4813;DHT22;2420;51.202;8.698;2023-08-07T11:33:44;15.20;1.00
4813;DHT22;2420;51.202;8.698;2023-08-07T11:36:14;15.40;1.00
4813;DHT22;2420;51.202;8.698;2023-08-07T11:38:42;15.70;1.00
4813;DHT22;2420;51.202;8.698;2023-08-07T11:41:11;15.90;1.00
4813;DHT22;2420;51.202;8.698;2023-08-07T11:43:38;16.20;1.00
4813;DHT22;2420;51.202;8.698;2023-08-07T11:46:05;16.50;1.00
4813;DHT22;2420;51.202;8.698;2023-08-07T11:48:37;16.60;1.00
4813;DHT22;2420;51.202;8.698;2023-08-07T11:51:03;16.90;1.00
4813;DHT22;2420;51.202;8.698;2023-08-07T11:53:31;17.00;1.00
4813;DHT22;2420;51.202;8.698;2023-08-07T11:58:31;16.80;1.00
4813;DHT22;2420;51.202;8.698;2023-08-07T12:00:58;16.40;1.00
4813;DHT22;2420;51.202;8.698;2023-08-07T12:03:31;16.20;1.00
4813;DHT22;2420;51.202;8.698;2023-08-07T12:05:58;16.20;1.00
4813;DHT22;2420;51.202;8.698;2023-08-07T12:08:25;16.30;1.00
4813;DHT22;2420;51.202;8.698;2023-08-07T12:10:56;16.20;1.00
4813;DHT22;2420;51.202;8.698;2023-08-07T12:13:25;15.80;1.00
4813;DHT22;2420;51.202;8.698;2023-08-07T12:15:53;15.60;1.00
4813;DHT22;2420;51.202;8.698;2023-08-07T12:18:20;15.50;1.00
4813;DHT22;2420;51.202;8.698;2023-08-07T12:20:46;15.40;1.00
4813;DHT22;2420;51.202;8.698;2023-08-07T12:23:15;15.40;1.00
4813;DHT22;2420;51.202;8.698;2023-08-07T12:25:44;15.70;1.00
4813;DHT22;2420;51.202;8.698;2023-08-07T12:28:10;15.80;1.00
4813;DHT22;2420;51.202;8.698;2023-08-07T12:30:39;16.10;1.00
4813;DHT22;2420;51.202;8.698;2023-08-07T12:33:05;16.30;1.00
4813;DHT22;2420;51.202;8.698;2023-08-07T12:35:31;16.60;1.00
4813;DHT22;2420;51.202;8.698;2023-08-07T12:37:57;16.90;1.00
4813;DHT22;2420;51.202;8.698;2023-08-07T12:40:23;17.00;1.00
4813;DHT22;2420;51.202;8.698;2023-08-07T12:42:49;17.00;1.00
4813;DHT22;2420;51.202;8.698;2023-08-07T12:45:15;16.90;1.00
4813;DHT22;2420;51.202;8.698;2023-08-07T12:47:42;16.70;1.00
4813;DHT22;2420;51.202;8.698;2023-08-07T12:50:08;16.40;1.00
4813;DHT22;2420;51.202;8.698;2023-08-07T12:52:34;16.30;1.00
4813;DHT22;2420;51.202;8.698;2023-08-07T12:55:00;16.10;1.00
4813;DHT22;2420;51.202;8.698;2023-08-07T12:57:25;16.10;1.00
4813;DHT22;2420;51.202;8.698;2023-08-07T12:59:51;16.40;1.00
4813;DHT22;2420;51.202;8.698;2023-08-07T13:02:17;16.70;1.00
4813;DHT22;2420;51.202;8.698;2023-08-07T13:04:42;16.90;1.00
4813;DHT22;2420;51.202;8.698;2023-08-07T13:07:08;17.20;1.00
4813;DHT22;2420;51.202;8.698;2023-08-07T13:09:33;17.40;1.00
4813;DHT22;2420;51.202;8.698;2023-08-07T13:11:59;17.50;1.00
4813;DHT22;2420;51.202;8.698;2023-08-07T13:14:24;17.40;1.00
4813;DHT22;2420;51.202;8.698;2023-08-07T13:16:50;17.10;1.00
4813;DHT22;2420;51.202;8.698;2023-08-07T13:19:16;17.10;1.00
4813;DHT22;2420;51.202;8.698;2023-08-07T13:21:42;17.10;1.00
4813;DHT22;2420;51.202;8.698;2023-08-07T13:24:07;17.20;1.00
4813;DHT22;2420;51.202;8.698;2023-08-07T13:26:33;17.20;1.00
4813;DHT22;2420;51.202;8.698;2023-08-07T13:28:58;17.20;1.00
4813;DHT22;2420;51.202;8.698;2023-08-07T13:31:24;17.10;1.00
4813;DHT22;2420;51.202;8.698;2023-08-07T13:33:49;16.60;1.00
4813;DHT22;2420;51.202;8.698;2023-08-07T13:36:15;16.20;1.00
4813;DHT22;2420;51.202;8.698;2023-08-07T13:38:41;15.90;1.00
4813;DHT22;2420;51.202;8.698;2023-08-07T13:41:06;15.80;1.00
4813;DHT22;2420;51.202;8.698;2023-08-07T13:43:33;15.60;1.00
4813;DHT22;2420;51.202;8.698;2023-08-07T13:45:58;15.50;1.00
4813;DHT22;2420;51.202;8.698;2023-08-07T13:48:24;15.50;1.00
4813;DHT22;2420;51.202;8.698;2023-08-07T13:50:53;15.70;1.00
4813;DHT22;2420;51.202;8.698;2023-08-07T13:53:19;15.90;1.00
4813;DHT22;2420;51.202;8.698;2023-08-07T13:55:49;16.30;1.00
4813;DHT22;2420;51.202;8.698;2023-08-07T13:58:15;16.60;1.00
4813;DHT22;2420;51.202;8.698;2023-08-07T14:00:41;16.90;1.00
4813;DHT22;2420;51.202;8.698;2023-08-07T14:03:08;17.00;1.00
4813;DHT22;2420;51.202;8.698;2023-08-07T14:05:34;17.10;1.00
4813;DHT22;2420;51.202;8.698;2023-08-07T14:07:59;17.00;1.00
4813;DHT22;2420;51.202;8.698;2023-08-07T14:10:25;16.70;1.00
4813;DHT22;2420;51.202;8.698;2023-08-07T14:12:50;16.70;1.00
4813;DHT22;2420;51.202;8.698;2023-08-07T14:15:16;16.70;1.00
4813;DHT22;2420;51.202;8.698;2023-08-07T14:17:42;16.90;1.00
4813;DHT22;2420;51.202;8.698;2023-08-07T14:20:08;17.20;1.00
4813;DHT22;2420;51.202;8.698;2023-08-07T14:22:34;17.40;1.00
4813;DHT22;2420;51.202;8.698;2023-08-07T14:25:02;17.30;1.00
4813;DHT22;2420;51.202;8.698;2023-08-07T14:27:28;17.00;1.00
4813;DHT22;2420;51.202;8.698;2023-08-07T14:29:54;16.90;1.00
4813;DHT22;2420;51.202;8.698;2023-08-07T14:32:19;16.90;1.00
4813;DHT22;2420;51.202;8.698;2023-08-07T14:34:45;16.90;1.00
4813;DHT22;2420;51.202;8.698;2023-08-07T14:37:13;16.90;1.00
4813;DHT22;2420;51.202;8.698;2023-08-07T14:39:38;17.00;1.00
4813;DHT22;2420;51.202;8.698;2023-08-07T14:42:04;17.00;1.00
4813;DHT22;2420;51.202;8.698;2023-08-07T14:44:29;17.10;1.00
4813;DHT22;2420;51.202;8.698;2023-08-07T14:46:55;16.90;1.00
4813;DHT22;2420;51.202;8.698;2023-08-07T14:49:21;16.80;1.00
4813;DHT22;2420;51.202;8.698;2023-08-07T14:51:46;16.60;1.00
4813;DHT22;2420;51.202;8.698;2023-08-07T14:54:12;16.50;1.00
4813;DHT22;2420;51.202;8.698;2023-08-07T14:56:37;16.30;1.00
4813;DHT22;2420;51.202;8.698;2023-08-07T14:59:03;16.20;1.00
4813;DHT22;2420;51.202;8.698;2023-08-07T15:01:28;16.20;1.00
4813;DHT22;2420;51.202;8.698;2023-08-07T15:03:54;16.10;1.00
4813;DHT22;2420;51.202;8.698;2023-08-07T15:06:19;16.20;1.00
4813;DHT22;2420;51.202;8.698;2023-08-07T15:08:47;16.20;1.00
4813;DHT22;2420;51.202;8.698;2023-08-07T15:11:13;16.10;1.00
4813;DHT22;2420;51.202;8.698;2023-08-07T15:13:39;16.10;1.00
4813;DHT22;2420;51.202;8.698;2023-08-07T15:16:05;16.20;1.00
4813;DHT22;2420;51.202;8.698;2023-08-07T15:18:31;16.20;1.00
4813;DHT22;2420;51.202;8.698;2023-08-07T15:20:58;16.20;1.00
4813;DHT22;2420;51.202;8.698;2023-08-07T15:23:26;16.30;1.00
4813;DHT22;2420;51.202;8.698;2023-08-07T15:25:51;16.20;1.00
4813;DHT22;2420;51.202;8.698;2023-08-07T15:28:17;16.10;1.00
4813;DHT22;2420;51.202;8.698;2023-08-07T15:30:48;16.20;1.00
4813;DHT22;2420;51.202;8.698;2023-08-07T15:33:17;16.10;1.00
4813;DHT22;2420;51.202;8.698;2023-08-07T15:35:43;16.00;1.00
4813;DHT22;2420;51.202;8.698;2023-08-07T15:38:08;15.90;1.00
4813;DHT22;2420;51.202;8.698;2023-08-07T15:40:38;15.60;1.00
4813;DHT22;2420;51.202;8.698;2023-08-07T15:43:03;15.40;1.00
4813;DHT22;2420;51.202;8.698;2023-08-07T15:45:29;15.20;1.00
4813;DHT22;2420;51.202;8.698;2023-08-07T15:47:55;15.10;1.00
4813;DHT22;2420;51.202;8.698;2023-08-07T15:50:20;15.00;1.00
4813;DHT22;2420;51.202;8.698;2023-08-07T15:52:46;15.00;1.00
4813;DHT22;2420;51.202;8.698;2023-08-07T15:55:11;14.90;1.00
4813;DHT22;2420;51.202;8.698;2023-08-07T15:57:37;14.90;1.00
4813;DHT22;2420;51.202;8.698;2023-08-07T16:00:04;14.80;1.00
4813;DHT22;2420;51.202;8.698;2023-08-07T16:02:31;14.60;1.00
4813;DHT22;2420;51.202;8.698;2023-08-07T16:04:56;14.50;1.00
4813;DHT22;2420;51.202;8.698;2023-08-07T16:07:22;14.60;1.00
4813;DHT22;2420;51.202;8.698;2023-08-07T16:09:47;14.80;1.00
4813;DHT22;2420;51.202;8.698;2023-08-07T16:12:13;14.80;1.00
4813;DHT22;2420;51.202;8.698;2023-08-07T16:14:39;14.90;1.00
4813;DHT22;2420;51.202;8.698;2023-08-07T16:17:04;14.90;1.00
4813;DHT22;2420;51.202;8.698;2023-08-07T16:19:30;14.90;1.00
4813;DHT22;2420;51.202;8.698;2023-08-07T16:21:56;15.00;1.00